Ana Sayfa
METAR-TAF:

METAR-TAF

Havaalanları :

Hazleton, Pensilvanya, Amerika Birleşik Devletleri

Enlem: 40-59-12N, Boylam: 075-59-42W, yükseklik: 489 m

Güncel hava durumu gözlemi

Rapor saat 20:16 UTC de 9 dakika önce yapıldı.
Rüzgar kuzey/kuzeybatıdan 3 kt
Sıcaklık 25°C
Nem 61%
Basınç 1014 hPa
Görüş mesafesi: 16.1 km
3100 ft yükseklikte parçalı bulutlu
3700 ft yükseklikte parçalı çok bulutlu
4900 ft yükseklikte parçalı çok bulutlu

METAR: KHZL 052016Z AUTO 33003KT 10SM SCT031 BKN037 BKN049 25/17 A2994 RMK AO2

Saat: 16:25 (20:25 UTC)


TAF: eksik

4.000'den fazla havaalanı için hava durumu gözlemleri ve tahminleri (METAR ve TAF raporları).

Kullanılabilir istasyonlar harita üzerinde sarı ve kırmızı noktalarla gösterilir.

İstasyonun adını görmek için fareyi noktanın üzerinde gezdirin.

Sonrasında hava gözlem ve tahminlerini görmek için tıklayın.

Haritayı değiştirmek için: yaklaştırmak için siyah artı işaretli yeşil düğmeye ve uzaklaştırmak için de eksi işaretli düğmeye hızla tıklayın; bitişik haritalar için yeşil okları kullanın.


METAR-TAF: